Aérodrome :
LOGIN :

S'inscrire | Disclaimer

   EN    FR    IT 

 










Légende :    VFR   VFR Marginal   IFR   IFR Intensif   IFR Très Intensif
Visi : 
Plafond : 
>= 8 km
>= 3000ft
5 à 8 km
1000 à 3000 ft
1500m à 5 km
500 à 1000 ft
800 à 1500m
200 à 500 ft
< 800m
< 200 ft
Symboles :   Orages  Brouillard  Fortes neiges  Fortes précipitations  Vent > 20 kt
SIGMETs :   Divers  Orages  Givrage  Turbulence  Onde Orograph.  Cendres Volcan.






- Altitude de l'aérodrome : 160 ft
- Code IATA : LRT


LFRH - Lorient Lann Bihoue

DERNIER METAR :
  • 041600Z AUTO 29008KT CAVOK 04/01 Q0987 TEMPO 28015G25KT 2000 TSGR SCT025CB

METARs EXPIRÉS :
  • 041530Z AUTO 29005KT CAVOK 04/01 Q0987 TEMPO 28015G25KT 2000 TSGR SCT025CB
  • 041500Z AUTO 28008KT 250V340 CAVOK 04/01 Q0986 TEMPO 28015G25KT 2000 TSGR SCT025CB
  • 041430Z AUTO 31007KT 9999 FEW035 BKN054 BKN076 05/02 Q0986 TEMPO 28015G25KT 2000 TSGR SCT025CB
  • 041400Z AUTO 32011KT 9999 FEW034 SCT042 BKN070 07/02 Q0986 TEMPO 28015G25KT 2000 TSGR SCT025CB
  • 041330Z AUTO 33010KT 300V020 9999 FEW034 SCT050 BKN062 07/02 Q0986 TEMPO 28015G25KT 2000 TSGR SCT025CB

TAF TAF LFRH
Valide du 04 à 12h jusqu'au 05 à 12h UTC


041100Z 0412/0512 28010KT 9999 SCT040 BKN050
TEMPO 0412/0417 28015G25KT 4000 -SHRA SCT025CB
PROB40
TEMPO 0412/0417 2000 TSGR
BECMG 0418/0420 VRB02KT
BECMG 0503/0506 23010KT 3000 -RA BKN015
BECMG 0507/0509 28015G25KT 4500 SHRA SCT015CB



MET'MAP, la Météo Aéronautique d'un coup d'oeil ! - Copyright ORBIFLY Décembre 2007 - Disclaimer

ORBIFLY MET'MAP TEAM :

Programmation & Développement : Alexandra Zaïnal
Sur une idée originale de : Baudouin d'Aumeries
Assistance à la programmation : Marc-Olivier Méhu
Soutien technique & logistique : Manuel Goepfert

Contact : metmap@orbifly.com




SOURCES & CREDITS :

   NOAA